createdAt,value
2018-09-18T00:01:14.782Z,15.00
2018-09-18T00:03:41.795Z,15.08
2018-09-18T00:06:08.826Z,15.02
2018-09-18T00:08:35.831Z,14.97
2018-09-18T00:11:02.888Z,15.02
2018-09-18T00:13:30.311Z,15.05
2018-09-18T00:15:57.368Z,15.02
2018-09-18T00:18:24.419Z,14.98
2018-09-18T00:20:51.420Z,14.97
2018-09-18T00:23:18.592Z,14.94
2018-09-18T00:25:45.643Z,14.91
2018-09-18T00:28:12.721Z,14.94
2018-09-18T00:30:39.708Z,14.95
2018-09-18T00:33:07.107Z,14.93
2018-09-18T00:35:34.133Z,14.90
2018-09-18T00:38:01.106Z,14.88
2018-09-18T00:40:28.557Z,14.87
2018-09-18T00:42:55.536Z,14.82
2018-09-18T00:45:22.685Z,14.72
2018-09-18T00:47:49.695Z,14.66
2018-09-18T00:50:16.760Z,14.76
2018-09-18T00:52:43.751Z,14.72
2018-09-18T00:55:10.827Z,14.66
2018-09-18T00:57:38.879Z,14.61
2018-09-18T01:00:06.363Z,14.66
2018-09-18T01:02:33.351Z,14.72
2018-09-18T01:05:00.422Z,14.47
2018-09-18T01:07:27.447Z,14.58
2018-09-18T01:09:54.499Z,14.52
2018-09-18T01:12:21.650Z,14.49
2018-09-18T01:14:58.791Z,14.57
2018-09-18T01:17:25.775Z,14.58
2018-09-18T01:19:52.752Z,14.57
2018-09-18T01:22:19.736Z,14.57
2018-09-18T01:24:46.883Z,14.45
2018-09-18T01:27:13.852Z,14.39
2018-09-18T01:29:41.277Z,14.37
2018-09-18T01:32:08.284Z,14.35
2018-09-18T01:34:35.263Z,14.48
2018-09-18T01:37:02.648Z,14.33
2018-09-18T01:39:29.717Z,14.38
2018-09-18T01:41:56.699Z,14.34
2018-09-18T01:44:23.699Z,14.30
2018-09-18T01:46:50.671Z,14.30
2018-09-18T01:49:17.743Z,14.36
2018-09-18T01:51:44.759Z,14.36
2018-09-18T01:54:11.724Z,14.32
2018-09-18T01:56:38.831Z,14.30
2018-09-18T01:59:05.864Z,14.32
2018-09-18T02:01:32.923Z,14.24
2018-09-18T02:04:00.136Z,14.28
2018-09-18T02:06:27.492Z,14.32
2018-09-18T02:08:54.460Z,14.31
2018-09-18T02:11:21.455Z,14.30
2018-09-18T02:13:48.548Z,14.25
2018-09-18T02:16:15.528Z,14.23
2018-09-18T02:18:42.653Z,14.28
2018-09-18T02:21:09.981Z,14.25
2018-09-18T02:23:36.967Z,14.40
2018-09-18T02:26:04.031Z,13.95
2018-09-18T02:28:31.531Z,14.26
2018-09-18T02:30:58.508Z,14.23
2018-09-18T02:33:25.484Z,14.25
2018-09-18T02:35:52.479Z,14.37
2018-09-18T02:38:19.448Z,14.33
2018-09-18T02:40:46.515Z,14.33
2018-09-18T02:43:13.534Z,14.32
2018-09-18T02:45:41.156Z,14.23
2018-09-18T02:48:08.176Z,14.34
2018-09-18T02:50:35.461Z,14.34
2018-09-18T02:53:02.752Z,14.30
2018-09-18T02:55:29.755Z,14.27
2018-09-18T02:57:56.743Z,14.25
2018-09-18T03:00:23.731Z,14.25
2018-09-18T03:02:50.717Z,14.27
2018-09-18T03:05:17.715Z,14.20
2018-09-18T03:07:45.028Z,14.19
2018-09-18T03:10:12.116Z,14.15
2018-09-18T03:12:39.110Z,14.22
2018-09-18T03:15:06.128Z,14.26
2018-09-18T03:17:33.180Z,14.22
2018-09-18T03:20:00.166Z,14.17
2018-09-18T03:22:27.239Z,14.13
2018-09-18T03:24:54.203Z,14.18
2018-09-18T03:27:21.493Z,14.15
2018-09-18T03:29:48.494Z,14.23
2018-09-18T03:32:15.460Z,14.23
2018-09-18T03:34:42.705Z,14.22
2018-09-18T03:37:09.709Z,14.22
2018-09-18T03:39:36.687Z,14.16
2018-09-18T03:42:03.708Z,14.16
2018-09-18T03:44:30.766Z,14.18
2018-09-18T03:46:57.757Z,14.26
2018-09-18T03:49:24.765Z,14.29
2018-09-18T03:51:51.760Z,14.33
2018-09-18T03:54:18.902Z,14.36
2018-09-18T03:56:48.223Z,14.30
2018-09-18T03:59:15.223Z,14.18
2018-09-18T04:01:42.204Z,14.12
2018-09-18T04:04:09.428Z,14.25
2018-09-18T04:06:36.434Z,14.09
2018-09-18T04:09:06.395Z,14.01
2018-09-18T04:11:33.379Z,13.97
2018-09-18T04:14:00.508Z,13.91
2018-09-18T04:16:27.577Z,13.90
2018-09-18T04:18:54.573Z,13.93
2018-09-18T04:21:26.657Z,13.96
2018-09-18T04:23:53.624Z,13.95
2018-09-18T04:26:20.603Z,13.95
2018-09-18T04:28:47.809Z,13.95
2018-09-18T04:31:14.798Z,14.01
2018-09-18T04:33:41.774Z,14.02
2018-09-18T04:36:08.852Z,13.99
2018-09-18T04:38:35.845Z,13.89
2018-09-18T04:41:02.996Z,13.89
2018-09-18T04:43:31.068Z,13.82
2018-09-18T04:45:58.220Z,13.89
2018-09-18T04:48:25.184Z,13.92
2018-09-18T04:50:52.463Z,13.83
2018-09-18T04:53:19.432Z,13.83
2018-09-18T04:55:46.393Z,13.79
2018-09-18T04:58:13.727Z,13.82
2018-09-18T05:00:47.743Z,13.88
2018-09-18T05:03:14.731Z,13.76
2018-09-18T05:05:41.799Z,13.75
2018-09-18T05:08:08.777Z,13.92
2018-09-18T05:10:35.781Z,13.92
2018-09-18T05:13:02.939Z,13.82
2018-09-18T05:15:30.151Z,13.78
2018-09-18T05:17:57.147Z,13.78
2018-09-18T05:20:24.240Z,13.80
2018-09-18T05:22:51.303Z,13.82
2018-09-18T05:25:18.315Z,13.77
2018-09-18T05:27:45.301Z,13.80
2018-09-18T05:30:12.305Z,13.77
2018-09-18T05:32:39.516Z,13.80
2018-09-18T05:35:06.556Z,13.72
2018-09-18T05:37:33.529Z,13.71
2018-09-18T05:40:00.499Z,13.72
2018-09-18T05:42:27.475Z,13.70
2018-09-18T05:44:54.519Z,13.84
2018-09-18T05:47:21.534Z,13.82
2018-09-18T05:49:48.563Z,13.79
2018-09-18T05:52:15.891Z,13.79
2018-09-18T05:54:42.963Z,13.99
2018-09-18T05:57:10.288Z,13.97
2018-09-18T05:59:37.750Z,14.00
2018-09-18T06:02:05.031Z,14.03
2018-09-18T06:04:31.996Z,14.09
2018-09-18T06:06:59.738Z,14.11
2018-09-18T06:09:26.709Z,14.08
2018-09-18T06:11:53.758Z,14.08
2018-09-18T06:14:20.777Z,14.20
2018-09-18T06:16:47.837Z,14.22
2018-09-18T06:19:14.855Z,14.30
2018-09-18T06:21:43.203Z,14.41
2018-09-18T06:24:10.318Z,14.48
2018-09-18T06:26:37.313Z,14.46
2018-09-18T06:29:04.331Z,14.50
2018-09-18T06:31:31.348Z,14.58
2018-09-18T06:33:58.328Z,14.54
2018-09-18T06:36:25.371Z,14.56
2018-09-18T06:38:52.467Z,14.62
2018-09-18T06:41:19.755Z,14.72
2018-09-18T06:43:46.747Z,14.78
2018-09-18T06:46:13.719Z,14.81
2018-09-18T06:48:40.765Z,14.94
2018-09-18T06:51:08.168Z,15.01
2018-09-18T06:53:35.154Z,15.12
2018-09-18T06:56:02.137Z,15.15
2018-09-18T06:58:29.216Z,15.22
2018-09-18T07:00:56.407Z,15.30
2018-09-18T07:03:23.470Z,15.35
2018-09-18T07:05:50.463Z,15.46
2018-09-18T07:08:18.157Z,15.57
2018-09-18T07:10:45.157Z,15.61
2018-09-18T07:13:12.156Z,15.76
2018-09-18T07:15:39.905Z,15.86
2018-09-18T07:18:06.975Z,16.10
2018-09-18T07:20:33.983Z,16.14
2018-09-18T07:23:01.091Z,16.25
2018-09-18T07:25:28.073Z,16.35
2018-09-18T07:27:55.099Z,16.49
2018-09-18T07:30:22.408Z,16.73
2018-09-18T07:32:49.476Z,16.89
2018-09-18T07:35:16.819Z,16.92
2018-09-18T07:37:43.799Z,17.11
2018-09-18T07:40:10.879Z,17.22
2018-09-18T07:42:38.236Z,17.40
2018-09-18T07:45:05.360Z,17.50
2018-09-18T07:47:32.351Z,17.61
2018-09-18T07:49:59.432Z,17.79
2018-09-18T07:52:26.419Z,17.90
2018-09-18T07:54:53.406Z,18.05
2018-09-18T07:57:20.435Z,18.11
2018-09-18T07:59:47.515Z,18.19
2018-09-18T08:02:14.527Z,18.30
2018-09-18T08:04:41.706Z,18.37
2018-09-18T08:07:10.294Z,18.49
2018-09-18T08:09:37.385Z,18.62
2018-09-18T08:12:04.478Z,18.72
2018-09-18T08:14:31.452Z,18.89
2018-09-18T08:16:58.452Z,19.05
2018-09-18T08:19:25.471Z,19.17
2018-09-18T08:21:52.438Z,19.29
2018-09-18T08:24:19.799Z,19.52
2018-09-18T08:26:46.896Z,19.58
2018-09-18T08:29:13.969Z,19.70
2018-09-18T08:31:41.096Z,19.81
2018-09-18T08:34:08.088Z,19.90
2018-09-18T08:36:35.464Z,20.02
2018-09-18T08:39:04.333Z,20.13
2018-09-18T08:41:31.370Z,20.31
2018-09-18T08:43:58.360Z,20.37
2018-09-18T08:46:25.444Z,20.51
2018-09-18T08:48:54.484Z,20.65
2018-09-18T08:51:21.795Z,20.74
2018-09-18T08:53:48.852Z,20.86
2018-09-18T08:56:15.945Z,20.99
2018-09-18T08:58:43.021Z,21.02
2018-09-18T09:01:10.404Z,21.15
2018-09-18T09:03:37.348Z,21.28
2018-09-18T09:06:04.495Z,21.46
2018-09-18T09:08:32.059Z,21.53
2018-09-18T09:10:59.474Z,21.69
2018-09-18T09:13:26.460Z,21.76
2018-09-18T09:15:54.063Z,21.97
2018-09-18T09:18:21.770Z,22.08
2018-09-18T09:20:48.969Z,22.15
2018-09-18T09:23:15.869Z,22.21
2018-09-18T09:25:44.324Z,22.44
2018-09-18T09:28:11.421Z,22.62
2018-09-18T09:30:38.387Z,22.68
2018-09-18T09:33:05.712Z,22.82
2018-09-18T09:35:32.903Z,22.97
2018-09-18T09:37:59.875Z,23.00
2018-09-18T09:40:27.039Z,23.15
2018-09-18T09:42:54.055Z,23.18
2018-09-18T09:45:21.094Z,23.42
2018-09-18T09:47:48.535Z,23.55
2018-09-18T09:50:17.220Z,23.68
2018-09-18T09:52:44.444Z,23.77
2018-09-18T09:55:11.962Z,23.93
2018-09-18T09:57:38.951Z,23.99
2018-09-18T10:00:06.691Z,24.18
2018-09-18T10:02:39.600Z,24.28
2018-09-18T10:05:06.611Z,24.37
2018-09-18T10:07:33.801Z,24.38
2018-09-18T10:10:00.848Z,24.65
2018-09-18T10:12:27.951Z,24.68
2018-09-18T10:14:54.945Z,24.83
2018-09-18T10:17:21.987Z,24.75
2018-09-18T10:19:49.445Z,24.91
2018-09-18T10:22:16.588Z,24.86
2018-09-18T10:24:43.591Z,24.95
2018-09-18T10:27:11.207Z,25.10
2018-09-18T10:29:38.184Z,25.21
2018-09-18T10:32:05.282Z,25.33
2018-09-18T10:34:32.475Z,25.48
2018-09-18T10:36:59.475Z,25.59
2018-09-18T10:39:33.392Z,25.65
2018-09-18T10:42:00.440Z,25.77
2018-09-18T10:44:27.375Z,25.89
2018-09-18T10:46:54.360Z,26.05
2018-09-18T10:49:21.627Z,26.05
2018-09-18T10:51:48.715Z,26.19
2018-09-18T10:54:15.823Z,26.40
2018-09-18T10:56:43.324Z,26.39
2018-09-18T10:59:10.483Z,26.42
2018-09-18T11:01:37.474Z,26.55
2018-09-18T11:04:04.487Z,26.64
2018-09-18T11:06:31.484Z,26.65
2018-09-18T11:08:58.483Z,26.69
2018-09-18T11:11:25.551Z,26.74
2018-09-18T11:13:52.500Z,26.75
2018-09-18T11:16:19.777Z,26.82
2018-09-18T11:18:47.117Z,26.86
2018-09-18T11:21:14.205Z,27.01
2018-09-18T11:23:41.203Z,27.19
2018-09-18T11:26:08.275Z,27.30
2018-09-18T11:28:35.253Z,27.29
2018-09-18T11:31:02.376Z,27.38
2018-09-18T11:33:29.641Z,27.37
2018-09-18T11:35:56.793Z,27.36
2018-09-18T11:38:23.764Z,27.47
2018-09-18T11:40:50.819Z,27.55
2018-09-18T11:43:17.896Z,27.55
2018-09-18T11:45:45.436Z,27.68
2018-09-18T11:48:12.481Z,27.89
2018-09-18T11:50:39.444Z,27.90
2018-09-18T11:53:06.913Z,27.96
2018-09-18T11:55:33.989Z,28.11
2018-09-18T11:58:01.212Z,28.10
2018-09-18T12:00:28.265Z,28.16
2018-09-18T12:02:55.324Z,28.31
2018-09-18T12:05:22.243Z,28.33
2018-09-18T12:07:49.299Z,28.47
2018-09-18T12:10:16.379Z,28.61
2018-09-18T12:12:43.841Z,28.76
2018-09-18T12:15:10.821Z,28.98
2018-09-18T12:17:37.865Z,29.11
2018-09-18T12:20:04.917Z,29.23
2018-09-18T12:22:31.988Z,29.44
2018-09-18T12:24:59.026Z,29.70
2018-09-18T12:27:26.198Z,29.65
2018-09-18T12:29:53.273Z,29.76
2018-09-18T12:32:20.333Z,29.87
2018-09-18T12:34:47.423Z,29.90
2018-09-18T12:37:14.404Z,29.96
2018-09-18T12:39:41.775Z,30.26
2018-09-18T12:42:08.889Z,30.53
2018-09-18T12:44:35.751Z,30.38
2018-09-18T12:47:03.011Z,30.43
2018-09-18T12:49:30.184Z,30.92
2018-09-18T12:51:57.016Z,31.03
2018-09-18T12:54:24.308Z,30.66
2018-09-18T12:56:51.383Z,30.77
2018-09-18T12:59:18.373Z,30.66
2018-09-18T13:01:46.075Z,30.89
2018-09-18T13:04:13.060Z,30.85
2018-09-18T13:06:40.128Z,30.79
2018-09-18T13:09:08.499Z,30.75
2018-09-18T13:11:35.629Z,31.09
2018-09-18T13:14:02.694Z,31.37
2018-09-18T13:16:29.699Z,31.31
2018-09-18T13:18:56.667Z,31.18
2018-09-18T13:29:23.289Z,31.92
2018-09-18T13:31:50.359Z,32.09
2018-09-18T13:34:17.351Z,32.10
2018-09-18T13:36:44.911Z,32.27
2018-09-18T13:39:11.964Z,32.37
2018-09-18T13:41:39.035Z,32.13
2018-09-18T13:44:06.255Z,32.10
2018-09-18T13:46:33.413Z,31.72
2018-09-18T13:49:00.537Z,31.91
2018-09-18T13:51:27.624Z,31.86
2018-09-18T13:53:54.640Z,31.88
2018-09-18T13:56:22.199Z,31.81
2018-09-18T13:58:49.123Z,31.98
2018-09-18T14:01:16.231Z,31.95
2018-09-18T14:03:43.376Z,32.11
2018-09-18T14:06:10.552Z,32.56
2018-09-18T14:08:37.536Z,32.19
2018-09-18T14:11:04.661Z,31.95
2018-09-18T14:13:31.789Z,31.90
2018-09-18T14:15:58.781Z,31.74
2018-09-18T14:18:25.876Z,31.49
2018-09-18T14:20:52.863Z,31.33
2018-09-18T14:23:19.844Z,31.26
2018-09-18T14:25:46.883Z,31.13
2018-09-18T14:28:13.844Z,31.03
2018-09-18T14:30:40.815Z,31.01
2018-09-18T14:33:08.141Z,30.99
2018-09-18T14:35:35.105Z,30.85
2018-09-18T14:38:02.132Z,30.75
2018-09-18T14:40:29.449Z,30.75
2018-09-18T14:42:56.396Z,30.72
2018-09-18T14:45:23.473Z,30.70
2018-09-18T14:47:50.643Z,30.61
2018-09-18T14:50:17.690Z,30.63
2018-09-18T14:52:44.740Z,30.59
2018-09-18T14:55:11.715Z,30.48
2018-09-18T14:57:38.824Z,30.42
2018-09-18T15:00:05.902Z,30.42
2018-09-18T15:02:32.935Z,30.37
2018-09-18T15:05:00.014Z,30.33
2018-09-18T15:07:27.283Z,30.32
2018-09-18T15:09:54.318Z,30.30
2018-09-18T15:12:21.303Z,30.29
2018-09-18T15:14:48.374Z,30.29
2018-09-18T15:17:15.312Z,30.28
2018-09-18T15:19:42.375Z,30.25
2018-09-18T15:22:09.362Z,30.22
2018-09-18T15:24:37.027Z,30.22
2018-09-18T15:27:04.108Z,30.20
2018-09-18T15:29:31.271Z,30.20
2018-09-18T15:31:58.628Z,30.18
2018-09-18T15:34:25.563Z,30.19
2018-09-18T15:36:52.551Z,30.15
2018-09-18T15:39:20.441Z,30.14
2018-09-18T15:41:47.572Z,30.13
2018-09-18T15:44:14.673Z,30.08
2018-09-18T15:46:41.726Z,30.11
2018-09-18T15:49:08.704Z,30.07
2018-09-18T15:51:35.820Z,30.03
2018-09-18T15:54:02.773Z,29.97
2018-09-18T15:56:29.761Z,29.97
2018-09-18T15:58:56.776Z,29.93
2018-09-18T16:01:23.883Z,29.91
2018-09-18T16:03:50.910Z,29.82
2018-09-18T16:06:17.969Z,29.79
2018-09-18T16:08:44.960Z,29.75
2018-09-18T16:11:11.968Z,29.72
2018-09-18T16:13:38.988Z,29.67
2018-09-18T16:16:06.037Z,29.60
2018-09-18T16:18:33.506Z,29.56
2018-09-18T16:21:00.518Z,29.52
2018-09-18T16:23:27.608Z,29.56
2018-09-18T16:25:54.958Z,29.43
2018-09-18T16:28:22.030Z,29.43
2018-09-18T16:31:00.334Z,29.45
2018-09-18T16:33:27.373Z,29.43
2018-09-18T16:35:54.356Z,29.42
2018-09-18T16:38:21.370Z,29.35
2018-09-18T16:40:48.472Z,29.24
2018-09-18T16:43:15.583Z,29.14
2018-09-18T16:45:42.559Z,29.14
2018-09-18T16:48:09.573Z,29.10
2018-09-18T16:50:36.522Z,29.00
2018-09-18T16:53:03.503Z,28.97
2018-09-18T16:55:30.962Z,28.91
2018-09-18T16:57:57.960Z,28.81
2018-09-18T17:00:25.062Z,28.71
2018-09-18T17:02:52.037Z,28.11
2018-09-18T17:05:19.021Z,28.11
2018-09-18T17:07:45.992Z,27.49
2018-09-18T17:10:13.368Z,26.79
2018-09-18T17:12:40.521Z,26.28
2018-09-18T17:15:07.560Z,26.05
2018-09-18T17:17:34.658Z,25.62
2018-09-18T17:20:01.627Z,25.42
2018-09-18T17:22:28.640Z,25.22
2018-09-18T17:24:56.061Z,24.99
2018-09-18T17:27:23.028Z,24.67
2018-09-18T17:29:50.008Z,24.46
2018-09-18T17:32:17.202Z,24.19
2018-09-18T17:34:44.192Z,24.11
2018-09-18T17:37:11.168Z,24.01
2018-09-18T17:39:38.463Z,23.83
2018-09-18T17:42:05.484Z,23.65
2018-09-18T17:44:32.480Z,23.52
2018-09-18T17:46:59.791Z,23.40
2018-09-18T17:49:26.786Z,23.27
2018-09-18T17:51:54.091Z,23.12
2018-09-18T17:54:21.396Z,23.01
2018-09-18T17:56:48.420Z,22.93
2018-09-18T17:59:15.355Z,22.81
2018-09-18T18:01:42.366Z,22.78
2018-09-18T18:04:09.600Z,22.79
2018-09-18T18:06:36.593Z,22.74
2018-09-18T18:09:05.919Z,22.47
2018-09-18T18:11:32.954Z,22.46
2018-09-18T18:13:59.971Z,22.32
2018-09-18T18:16:27.262Z,22.15
2018-09-18T18:18:54.242Z,22.06
2018-09-18T18:21:21.226Z,21.90
2018-09-18T18:23:48.576Z,21.87
2018-09-18T18:26:15.593Z,21.83
2018-09-18T18:28:42.596Z,21.74
2018-09-18T18:31:10.002Z,21.68
2018-09-18T18:33:36.985Z,21.62
2018-09-18T18:36:03.981Z,21.49
2018-09-18T18:38:31.162Z,21.38
2018-09-18T18:40:58.325Z,21.28
2018-09-18T18:43:25.387Z,21.23
2018-09-18T18:45:52.404Z,21.12
2018-09-18T18:48:19.549Z,21.03
2018-09-18T18:50:46.536Z,21.00
2018-09-18T18:53:13.518Z,20.89
2018-09-18T18:55:40.800Z,20.83
2018-09-18T18:58:07.784Z,20.84
2018-09-18T19:00:34.863Z,20.80
2018-09-18T19:03:01.859Z,20.72
2018-09-18T19:05:28.844Z,20.63
2018-09-18T19:07:55.802Z,20.60
2018-09-18T19:10:23.302Z,20.60
2018-09-18T19:12:50.395Z,20.60
2018-09-18T19:15:17.348Z,20.47
2018-09-18T19:17:44.630Z,20.37
2018-09-18T19:20:11.610Z,20.41
2018-09-18T19:22:38.574Z,20.37
2018-09-18T19:25:06.095Z,20.29
2018-09-18T19:27:33.070Z,20.22
2018-09-18T19:30:00.050Z,20.23
2018-09-18T19:32:27.119Z,20.13
2018-09-18T19:34:54.328Z,20.14
2018-09-18T19:37:21.299Z,20.17
2018-09-18T19:39:48.292Z,20.23
2018-09-18T19:42:15.264Z,20.09
2018-09-18T19:44:42.583Z,20.03
2018-09-18T19:47:09.571Z,20.01
2018-09-18T19:49:39.009Z,19.90
2018-09-18T19:52:12.860Z,19.87
2018-09-18T19:54:40.625Z,19.85
2018-09-18T19:57:08.186Z,19.80
2018-09-18T19:59:35.161Z,19.59
2018-09-18T20:02:02.185Z,19.73
2018-09-18T20:04:29.191Z,19.62
2018-09-18T20:06:56.187Z,19.60
2018-09-18T20:09:23.315Z,19.52
2018-09-18T20:11:50.620Z,19.62
2018-09-18T20:14:17.592Z,19.48
2018-09-18T20:16:44.596Z,19.54
2018-09-18T20:19:11.978Z,19.40
2018-09-18T20:21:38.959Z,19.45
2018-09-18T20:24:05.962Z,19.40
2018-09-18T20:26:33.339Z,19.38
2018-09-18T20:29:00.457Z,19.33
2018-09-18T20:31:27.329Z,19.25
2018-09-18T20:33:54.303Z,19.20
2018-09-18T20:36:21.442Z,19.13
2018-09-18T20:38:48.436Z,19.10
2018-09-18T20:41:15.416Z,18.95
2018-09-18T20:43:42.419Z,19.03
2018-09-18T20:46:09.576Z,19.00
2018-09-18T20:48:36.712Z,19.03
2018-09-18T20:51:03.995Z,18.96
2018-09-18T20:53:31.003Z,19.01
2018-09-18T20:56:04.979Z,18.97
2018-09-18T20:58:32.516Z,18.96
2018-09-18T21:00:59.524Z,18.92
2018-09-18T21:03:26.519Z,18.86
2018-09-18T21:05:53.515Z,18.82
2018-09-18T21:08:20.703Z,18.74
2018-09-18T21:10:47.689Z,18.59
2018-09-18T21:13:15.000Z,18.56
2018-09-18T21:15:42.089Z,18.50
2018-09-18T21:18:09.144Z,18.45
2018-09-18T21:20:36.396Z,18.36
2018-09-18T21:23:03.368Z,18.38
2018-09-18T21:26:10.060Z,18.39
2018-09-18T21:28:37.320Z,18.34
2018-09-18T21:31:04.480Z,18.30
2018-09-18T21:33:31.555Z,18.12
2018-09-18T21:35:58.991Z,18.09
2018-09-18T21:38:26.021Z,18.12
2018-09-18T21:40:53.016Z,17.99
2018-09-18T21:43:20.024Z,18.06
2018-09-18T21:45:47.759Z,18.05
2018-09-18T21:48:14.758Z,17.99
2018-09-18T21:50:42.538Z,18.00
2018-09-18T21:53:11.470Z,17.96
2018-09-18T21:55:38.463Z,17.92
2018-09-18T21:58:06.182Z,17.95
2018-09-18T22:00:33.184Z,17.86
2018-09-18T22:03:00.882Z,17.90
2018-09-18T22:05:28.466Z,17.75
2018-09-18T22:07:55.497Z,17.67
2018-09-18T22:10:22.566Z,17.67
2018-09-18T22:12:49.900Z,17.72
2018-09-18T22:15:16.903Z,17.66
2018-09-18T22:17:43.885Z,17.62
2018-09-18T22:20:11.206Z,17.56
2018-09-18T22:22:38.224Z,17.45
2018-09-18T22:25:05.437Z,17.45
2018-09-18T22:27:32.621Z,17.36
2018-09-18T22:29:59.682Z,17.30
2018-09-18T22:32:26.707Z,17.27
2018-09-18T22:34:53.782Z,17.19
2018-09-18T22:37:20.800Z,17.15
2018-09-18T22:39:47.867Z,17.12
2018-09-18T22:42:14.926Z,17.09
2018-09-18T22:44:42.234Z,17.08
2018-09-18T22:47:09.320Z,17.08
2018-09-18T22:49:36.307Z,17.07
2018-09-18T22:52:03.328Z,17.01
2018-09-18T22:54:30.491Z,16.99
2018-09-18T22:56:57.562Z,16.94
2018-09-18T22:59:24.576Z,16.91
2018-09-18T23:01:51.681Z,16.86
2018-09-18T23:04:18.746Z,16.83
2018-09-18T23:06:46.063Z,16.80
2018-09-18T23:09:13.126Z,16.79
2018-09-18T23:11:47.173Z,16.79
2018-09-18T23:14:14.283Z,16.74
2018-09-18T23:16:41.621Z,16.73
2018-09-18T23:19:08.917Z,16.70
2018-09-18T23:21:35.980Z,16.71
2018-09-18T23:24:02.973Z,16.69
2018-09-18T23:26:29.948Z,16.71
2018-09-18T23:28:58.095Z,16.69
2018-09-18T23:31:25.114Z,16.71
2018-09-18T23:33:52.090Z,16.76
2018-09-18T23:36:19.332Z,16.73
2018-09-18T23:38:46.305Z,16.72
2018-09-18T23:41:13.423Z,16.70
2018-09-18T23:43:40.491Z,16.68
2018-09-18T23:46:07.462Z,16.68
2018-09-18T23:48:34.452Z,16.65
2018-09-18T23:51:01.452Z,16.65
2018-09-18T23:53:28.522Z,16.65
2018-09-18T23:55:55.911Z,16.59
2018-09-18T23:58:22.879Z,16.65
